Time;durP1;ratioP1;P1;durP2;ratioP2;P2;SDS_P1;SDS_P2;PMS_P1;PMS_P2;Temp;Humidity;BMP_temperature;BMP_pressure;BME280_temperature;BME280_humidity;BME280_pressure;Samples;Min_cycle;Max_cycle;Signal;HPM_P1;HPM_P2
2022/12/27 00:00:54;;;;;;;22.55;13.70;;;;;;;;;;4928859;29;20055;-83
2022/12/27 00:03:20;;;;;;;21.17;12.80;;;;;;;;;;4906906;29;20032;-83
2022/12/27 00:05:47;;;;;;;17.38;11.15;;;;;;;;;;4931662;29;20028;-83
2022/12/27 00:08:13;;;;;;;18.95;11.73;;;;;;;;;;4923608;29;20025;-83
2022/12/27 00:10:39;;;;;;;20.92;12.35;;;;;;;;;;4922020;29;20047;-83
2022/12/27 00:13:05;;;;;;;22.15;13.07;;;;;;;;;;4923554;29;20106;-84
2022/12/27 00:15:32;;;;;;;23.33;13.05;;;;;;;;;;4922324;29;20076;-83
2022/12/27 00:17:59;;;;;;;22.15;14.10;;;;;;;;;;4923632;29;20036;-84
2022/12/27 00:20:25;;;;;;;23.92;13.82;;;;;;;;;;4922860;29;20058;-84
2022/12/27 00:22:51;;;;;;;20.58;13.93;;;;;;;;;;4929849;29;20032;-83
2022/12/27 00:25:17;;;;;;;21.17;14.77;;;;;;;;;;4940795;29;20032;-84
2022/12/27 00:27:43;;;;;;;21.27;13.68;;;;;;;;;;4921712;29;20039;-84
2022/12/27 00:30:09;;;;;;;24.20;15.07;;;;;;;;;;4923445;29;20288;-84
2022/12/27 00:32:54;;;;;;;21.35;14.70;;;;;;;;;;4922056;29;20408;-84
2022/12/27 00:35:20;;;;;;;22.17;14.95;;;;;;;;;;4924006;29;20039;-84
2022/12/27 00:37:46;;;;;;;22.40;14.50;;;;;;;;;;4931354;29;20305;-84
2022/12/27 00:40:12;;;;;;;24.50;15.02;;;;;;;;;;4924060;29;20075;-84
2022/12/27 00:42:38;;;;;;;24.38;16.02;;;;;;;;;;4913453;29;20086;-84
2022/12/27 00:45:05;;;;;;;25.67;15.90;;;;;;;;;;4925099;29;20130;-83
2022/12/27 00:47:31;;;;;;;23.80;15.63;;;;;;;;;;4942193;29;20167;-84
2022/12/27 00:49:57;;;;;;;25.58;17.50;;;;;;;;;;4942110;29;20024;-83
2022/12/27 00:52:23;;;;;;;26.58;17.52;;;;;;;;;;4924988;29;20020;-83
2022/12/27 00:54:49;;;;;;;23.98;16.50;;;;;;;;;;4941958;29;20108;-84
2022/12/27 00:57:15;;;;;;;28.33;15.18;;;;;;;;;;4925096;29;20032;-84
2022/12/27 00:59:41;;;;;;;26.08;16.27;;;;;;;;;;4941972;29;20403;-84
2022/12/27 01:02:07;;;;;;;25.00;15.85;;;;;;;;;;4924896;29;20036;-84
2022/12/27 01:04:33;;;;;;;29.30;16.23;;;;;;;;;;4925056;29;20318;-83
2022/12/27 01:06:59;;;;;;;24.50;16.77;;;;;;;;;;4941517;29;20031;-84
2022/12/27 01:09:25;;;;;;;25.58;16.70;;;;;;;;;;4941548;29;20036;-84
2022/12/27 01:11:51;;;;;;;28.15;17.83;;;;;;;;;;4941340;29;20024;-84
2022/12/27 01:14:17;;;;;;;29.45;18.90;;;;;;;;;;4924216;29;20044;-84
2022/12/27 01:16:43;;;;;;;30.65;17.00;;;;;;;;;;4941126;29;20071;-83
2022/12/27 01:19:09;;;;;;;28.92;18.02;;;;;;;;;;4930696;29;20072;-84
2022/12/27 01:21:36;;;;;;;28.35;18.40;;;;;;;;;;4935459;29;20030;-84
2022/12/27 01:24:02;;;;;;;28.42;18.45;;;;;;;;;;4941210;29;20043;-84
2022/12/27 01:26:28;;;;;;;29.08;19.10;;;;;;;;;;4934641;29;20035;-84
2022/12/27 01:28:54;;;;;;;26.98;17.95;;;;;;;;;;4922357;29;20072;-84
2022/12/27 01:31:23;;;;;;;28.50;18.80;;;;;;;;;;4931066;29;20315;-84
2022/12/27 01:33:53;;;;;;;29.30;18.70;;;;;;;;;;4935483;29;20123;-84
2022/12/27 01:36:20;;;;;;;26.83;17.63;;;;;;;;;;4925040;29;20042;-84
2022/12/27 01:38:47;;;;;;;29.02;17.83;;;;;;;;;;4937844;29;20047;-84
2022/12/27 01:44:26;;;;;;;36.40;19.92;;;;;;;;;;4922779;29;20130;-83
2022/12/27 01:46:52;;;;;;;28.90;19.50;;;;;;;;;;4922105;29;20441;-84
2022/12/27 01:49:31;;;;;;;32.50;20.25;;;;;;;;;;4921974;29;20338;-84
2022/12/27 01:51:58;;;;;;;28.25;18.65;;;;;;;;;;4916829;29;20099;-83
2022/12/27 01:54:24;;;;;;;28.67;17.80;;;;;;;;;;4921778;29;20028;-83
2022/12/27 01:56:50;;;;;;;27.33;18.05;;;;;;;;;;4922828;29;20107;-84
2022/12/27 01:59:16;;;;;;;27.05;17.95;;;;;;;;;;4920301;29;20315;-83
2022/12/27 02:01:43;;;;;;;26.10;16.48;;;;;;;;;;4921514;29;20096;-83
2022/12/27 02:04:15;;;;;;;24.67;15.23;;;;;;;;;;4921676;29;20028;-83
2022/12/27 02:06:42;;;;;;;21.48;13.52;;;;;;;;;;4933356;29;20059;-83
2022/12/27 02:09:08;;;;;;;21.65;12.95;;;;;;;;;;4939180;29;20078;-83
2022/12/27 02:11:50;;;;;;;19.65;12.65;;;;;;;;;;4939887;29;20023;-84
2022/12/27 02:14:16;;;;;;;;;;;;;;;;;;4934277;29;20028;-83
2022/12/27 02:16:42;;;;;;;22.13;13.98;;;;;;;;;;4921616;29;20310;-83
2022/12/27 02:19:27;;;;;;;23.02;15.65;;;;;;;;;;4921065;29;20158;-84
2022/12/27 02:22:02;;;;;;;23.90;16.58;;;;;;;;;;4915050;29;20104;-84
2022/12/27 02:24:34;;;;;;;22.67;14.65;;;;;;;;;;4902191;29;20077;-84
2022/12/27 02:27:32;;;;;;;19.60;13.35;;;;;;;;;;4917939;29;20380;-84
2022/12/27 02:30:01;;;;;;;20.98;12.70;;;;;;;;;;4827140;29;20148;-84
2022/12/27 02:32:27;;;;;;;18.63;12.35;;;;;;;;;;4812670;29;20051;-82
2022/12/27 02:34:59;;;;;;;17.10;12.45;;;;;;;;;;4808621;29;20057;-83
2022/12/27 02:37:25;;;;;;;;;;;;;;;;;;4807217;29;20103;-84
2022/12/27 02:39:52;;;;;;;15.73;10.18;;;;;;;;;;4813393;29;20316;-84
2022/12/27 02:53:49;;;;;;;12.23;8.02;;;;;;;;;;4812513;29;20091;-83
2022/12/27 02:59:25;;;;;;;10.27;6.55;;;;;;;;;;4812112;29;20095;-82
2022/12/27 03:05:21;;;;;;;11.82;6.10;;;;;;;;;;4796987;29;20037;-83
2022/12/27 03:07:55;;;;;;;9.18;5.85;;;;;;;;;;4833172;29;20125;-84
2022/12/27 03:16:08;;;;;;;10.40;5.50;;;;;;;;;;4830799;29;20552;-83
2022/12/27 03:19:01;;;;;;;10.38;5.50;;;;;;;;;;4829849;29;20042;-83
2022/12/27 03:27:27;;;;;;;10.10;5.65;;;;;;;;;;4801487;29;20130;-83
2022/12/27 03:38:01;;;;;;;10.02;5.60;;;;;;;;;;4820486;29;20155;-83
2022/12/27 03:38:35;;;;;;;9.38;5.63;;;;;;;;;;4811318;29;20039;-84
2022/12/27 03:43:49;;;;;;;8.05;5.53;;;;;;;;;;4853879;29;20044;-83
2022/12/27 03:46:35;;;;;;;7.68;4.88;;;;;;;;;;4849001;29;20070;-83
2022/12/27 03:49:11;;;;;;;8.77;5.15;;;;;;;;;;4865605;29;20038;-83
2022/12/27 03:52:10;;;;;;;9.02;4.90;;;;;;;;;;4860545;29;20521;-83
2022/12/27 03:54:38;;;;;;;8.32;5.05;;;;;;;;;;4828766;29;20049;-83
2022/12/27 03:57:05;;;;;;;9.50;5.72;;;;;;;;;;4827864;29;20430;-83
2022/12/27 03:59:31;;;;;;;8.73;5.07;;;;;;;;;;4843368;29;20037;-84
2022/12/27 04:01:59;;;;;;;7.50;4.75;;;;;;;;;;4835110;29;20038;-84
2022/12/27 04:04:25;;;;;;;6.30;4.82;;;;;;;;;;4840213;29;20038;-84
2022/12/27 04:06:51;;;;;;;5.80;4.18;;;;;;;;;;4855293;29;20106;-84
2022/12/27 04:34:40;;;;;;;8.32;4.55;;;;;;;;;;4928386;29;20079;-82
2022/12/27 04:37:07;;;;;;;7.13;4.60;;;;;;;;;;4922949;29;20024;-83
2022/12/27 04:39:33;;;;;;;5.97;4.28;;;;;;;;;;4922688;29;20067;-82
2022/12/27 04:56:04;;;;;;;10.27;6.50;;;;;;;;;;4864989;29;20045;-81
2022/12/27 04:58:31;;;;;;;9.48;6.40;;;;;;;;;;4864462;29;20037;-81
2022/12/27 05:03:44;;;;;;;8.93;5.85;;;;;;;;;;4864498;29;20348;-81
2022/12/27 05:06:10;;;;;;;21.58;10.05;;;;;;;;;;4864578;29;20049;-81
2022/12/27 05:14:08;;;;;;;7.68;5.05;;;;;;;;;;4864430;29;20049;-81
2022/12/27 05:16:36;;;;;;;9.10;4.88;;;;;;;;;;4864150;29;20130;-82
2022/12/27 05:19:02;;;;;;;8.57;5.22;;;;;;;;;;4864067;29;20029;-81
2022/12/27 05:21:28;;;;;;;8.45;4.93;;;;;;;;;;4886460;29;20052;-81
2022/12/27 05:26:39;;;;;;;7.50;5.03;;;;;;;;;;4884427;29;20267;-81
2022/12/27 05:29:06;;;;;;;6.97;5.70;;;;;;;;;;4884368;29;20464;-81
2022/12/27 05:31:32;;;;;;;9.75;5.82;;;;;;;;;;4884304;29;20100;-81
2022/12/27 05:33:58;;;;;;;8.93;5.95;;;;;;;;;;4884175;29;20032;-81
2022/12/27 05:36:25;;;;;;;10.05;6.75;;;;;;;;;;4884288;29;20035;-81
2022/12/27 05:38:51;;;;;;;9.38;8.38;;;;;;;;;;4884231;29;20350;-81
2022/12/27 05:41:17;;;;;;;10.30;6.30;;;;;;;;;;4867760;29;20053;-81
2022/12/27 05:43:43;;;;;;;11.93;6.45;;;;;;;;;;4884174;29;20053;-81
2022/12/27 05:46:11;;;;;;;10.05;6.22;;;;;;;;;;4884173;29;20028;-81
2022/12/27 05:48:37;;;;;;;9.80;6.75;;;;;;;;;;4883951;29;20033;-81
2022/12/27 05:51:04;;;;;;;17.90;9.05;;;;;;;;;;4883958;29;20029;-81
2022/12/27 05:53:30;;;;;;;19.20;9.40;;;;;;;;;;4884244;29;20037;-81
2022/12/27 05:55:57;;;;;;;18.58;8.85;;;;;;;;;;4883892;29;20061;-81
2022/12/27 05:58:23;;;;;;;14.85;7.80;;;;;;;;;;4883776;29;20037;-81
2022/12/27 06:00:49;;;;;;;11.32;7.57;;;;;;;;;;4883736;29;20045;-81
2022/12/27 06:03:15;;;;;;;13.38;7.22;;;;;;;;;;4883680;29;20029;-81
2022/12/27 06:05:41;;;;;;;15.85;8.80;;;;;;;;;;4883737;29;20029;-82
2022/12/27 06:08:07;;;;;;;14.60;8.10;;;;;;;;;;4883890;29;20026;-81
2022/12/27 06:10:33;;;;;;;15.50;9.00;;;;;;;;;;4867185;29;20029;-81
2022/12/27 06:13:00;;;;;;;19.23;9.70;;;;;;;;;;4883511;29;20044;-81
2022/12/27 06:15:26;;;;;;;14.85;10.32;;;;;;;;;;4867106;29;20028;-81
2022/12/27 06:17:52;;;;;;;14.90;9.35;;;;;;;;;;4883483;29;20101;-81
2022/12/27 06:20:18;;;;;;;21.38;11.40;;;;;;;;;;4882668;29;20037;-81
2022/12/27 06:22:45;;;;;;;23.55;12.63;;;;;;;;;;4883694;29;20033;-81
2022/12/27 06:25:11;;;;;;;23.02;12.10;;;;;;;;;;4900437;29;20317;-81
2022/12/27 06:27:37;;;;;;;14.60;9.32;;;;;;;;;;4902285;29;20032;-81
2022/12/27 06:30:03;;;;;;;15.23;10.27;;;;;;;;;;4902181;29;20115;-82
2022/12/27 06:32:30;;;;;;;19.02;12.00;;;;;;;;;;4902088;29;20084;-81
2022/12/27 06:34:56;;;;;;;30.80;17.83;;;;;;;;;;4902041;29;20368;-81
2022/12/27 06:37:22;;;;;;;22.95;12.90;;;;;;;;;;4901842;29;20035;-81
2022/12/27 06:39:48;;;;;;;25.25;11.60;;;;;;;;;;4901040;29;20017;-81
2022/12/27 06:42:14;;;;;;;36.95;15.25;;;;;;;;;;4902217;29;20037;-81
2022/12/27 06:44:40;;;;;;;30.42;18.13;;;;;;;;;;4902054;29;20024;-82
2022/12/27 06:47:07;;;;;;;27.00;17.48;;;;;;;;;;4901927;29;20036;-82
2022/12/27 06:49:33;;;;;;;30.27;17.33;;;;;;;;;;4901023;29;20032;-82
2022/12/27 06:51:59;;;;;;;33.85;21.33;;;;;;;;;;4900983;29;20040;-82
2022/12/27 06:54:25;;;;;;;32.47;19.52;;;;;;;;;;4902254;29;20029;-83
2022/12/27 06:56:51;;;;;;;30.67;19.52;;;;;;;;;;4900920;29;20036;-82
2022/12/27 06:59:17;;;;;;;75.00;48.00;;;;;;;;;;4901969;29;20032;-82
2022/12/27 07:01:43;;;;;;;37.30;24.98;;;;;;;;;;4901983;29;20031;-82
2022/12/27 07:04:09;;;;;;;36.33;22.55;;;;;;;;;;4901851;29;20036;-82
2022/12/27 07:06:36;;;;;;;25.80;15.35;;;;;;;;;;4900852;29;20029;-83
2022/12/27 07:09:03;;;;;;;20.88;14.10;;;;;;;;;;4901830;29;20111;-81
2022/12/27 07:11:31;;;;;;;22.50;14.00;;;;;;;;;;4901751;29;20117;-81
2022/12/27 07:13:57;;;;;;;22.23;15.70;;;;;;;;;;4900710;29;20111;-81
2022/12/27 07:16:24;;;;;;;27.70;17.80;;;;;;;;;;4901733;29;20053;-81
2022/12/27 07:18:52;;;;;;;32.72;22.60;;;;;;;;;;4900868;29;20056;-81
2022/12/27 07:21:20;;;;;;;42.65;27.90;;;;;;;;;;4900638;29;20033;-81
2022/12/27 07:23:46;;;;;;;54.88;33.38;;;;;;;;;;4901533;29;20052;-81
2022/12/27 07:26:14;;;;;;;53.65;29.65;;;;;;;;;;4900670;29;20029;-81
2022/12/27 07:28:40;;;;;;;46.42;25.05;;;;;;;;;;4900370;29;20440;-81
2022/12/27 07:31:09;;;;;;;45.20;23.83;;;;;;;;;;4903337;29;20073;-81
2022/12/27 07:33:36;;;;;;;31.30;18.88;;;;;;;;;;4905056;29;20490;-81
2022/12/27 07:36:02;;;;;;;29.83;18.50;;;;;;;;;;4905097;29;20036;-81
2022/12/27 07:38:28;;;;;;;33.47;19.75;;;;;;;;;;4904709;29;20029;-81
2022/12/27 07:40:57;;;;;;;29.83;17.13;;;;;;;;;;4903818;29;20126;-81
2022/12/27 07:43:23;;;;;;;25.98;16.40;;;;;;;;;;4905099;29;20033;-81
2022/12/27 07:45:49;;;;;;;23.27;15.38;;;;;;;;;;4903484;29;20036;-81
2022/12/27 07:48:15;;;;;;;35.25;22.77;;;;;;;;;;4904699;29;20035;-81
2022/12/27 07:50:41;;;;;;;56.53;32.40;;;;;;;;;;4904729;29;20028;-81
2022/12/27 07:53:08;;;;;;;92.68;53.47;;;;;;;;;;4903862;29;20025;-81
2022/12/27 07:55:34;;;;;;;93.63;55.10;;;;;;;;;;4903660;29;20119;-81
2022/12/27 07:58:00;;;;;;;70.40;40.35;;;;;;;;;;4904982;29;20029;-81
2022/12/27 08:00:28;;;;;;;55.47;30.95;;;;;;;;;;4904893;29;20025;-82
2022/12/27 08:02:54;;;;;;;44.20;27.02;;;;;;;;;;4903245;29;20308;-82
2022/12/27 08:05:20;;;;;;;42.25;25.00;;;;;;;;;;4904397;29;20020;-81
2022/12/27 08:07:46;;;;;;;40.78;23.67;;;;;;;;;;4904859;29;20024;-83
2022/12/27 08:10:12;;;;;;;41.13;25.15;;;;;;;;;;4903406;29;20033;-84
2022/12/27 08:12:38;;;;;;;65.85;33.25;;;;;;;;;;4903793;29;20033;-85
2022/12/27 08:15:04;;;;;;;68.43;31.17;;;;;;;;;;4888131;29;20029;-84
2022/12/27 08:17:31;;;;;;;59.80;28.58;;;;;;;;;;4904541;29;20040;-82
2022/12/27 08:19:57;;;;;;;42.03;22.40;;;;;;;;;;4904699;29;20033;-83
2022/12/27 08:22:23;;;;;;;47.00;23.77;;;;;;;;;;4903250;29;20033;-80
2022/12/27 08:24:50;;;;;;;43.08;21.00;;;;;;;;;;4904183;29;20071;-82
2022/12/27 08:27:20;;;;;;;41.75;18.73;;;;;;;;;;4903537;29;20035;-81
2022/12/27 08:29:47;;;;;;;44.67;21.05;;;;;;;;;;4904442;29;20436;-89
2022/12/27 08:32:13;;;;;;;44.03;20.05;;;;;;;;;;4903669;29;20119;-91
2022/12/27 08:34:39;;;;;;;43.55;21.15;;;;;;;;;;4903817;29;20072;-90
2022/12/27 08:37:05;;;;;;;38.53;19.23;;;;;;;;;;4903425;29;20040;-86
2022/12/27 08:39:31;;;;;;;41.17;20.98;;;;;;;;;;4904565;29;20047;-91
2022/12/27 08:41:57;;;;;;;36.40;18.38;;;;;;;;;;4902497;29;20024;-91
2022/12/27 08:44:23;;;;;;;39.63;20.20;;;;;;;;;;4903033;29;20037;-91
2022/12/27 08:46:49;;;;;;;35.03;19.30;;;;;;;;;;4904233;29;20470;-92
2022/12/27 08:49:15;;;;;;;42.10;24.23;;;;;;;;;;4903086;29;20416;-89
2022/12/27 08:51:41;;;;;;;34.90;19.55;;;;;;;;;;4903568;29;20423;-92
2022/12/27 08:54:07;;;;;;;28.33;16.40;;;;;;;;;;4904245;29;20043;-92
2022/12/27 08:56:33;;;;;;;22.30;13.23;;;;;;;;;;4904186;29;20036;-92
2022/12/27 08:59:00;;;;;;;22.33;13.13;;;;;;;;;;4904048;29;20111;-91
2022/12/27 09:01:26;;;;;;;21.88;12.57;;;;;;;;;;4902623;29;20040;-92
2022/12/27 09:03:52;;;;;;;13.82;9.43;;;;;;;;;;4903404;29;20032;-91
2022/12/27 09:06:19;;;;;;;19.17;11.38;;;;;;;;;;4903670;29;20027;-91
2022/12/27 09:08:46;;;;;;;23.63;15.13;;;;;;;;;;4903972;29;20039;-91
2022/12/27 09:11:12;;;;;;;20.15;10.45;;;;;;;;;;4902800;29;20039;-90
2022/12/27 09:13:39;;;;;;;24.38;16.50;;;;;;;;;;4903834;29;20082;-91
2022/12/27 09:16:12;;;;;;;18.25;12.32;;;;;;;;;;4903739;29;20032;-91
2022/12/27 09:18:39;;;;;;;19.98;11.30;;;;;;;;;;4903667;29;20033;-84
2022/12/27 09:21:08;;;;;;;12.25;7.65;;;;;;;;;;4903489;29;20309;-90
2022/12/27 09:23:35;;;;;;;24.80;15.18;;;;;;;;;;4897434;29;20068;-90
2022/12/27 09:26:05;;;;;;;21.63;13.02;;;;;;;;;;4885063;29;20025;-90
2022/12/27 09:28:31;;;;;;;18.77;10.32;;;;;;;;;;4884606;29;20021;-90
2022/12/27 09:30:57;;;;;;;19.95;14.07;;;;;;;;;;4868492;29;20064;-90
2022/12/27 09:33:23;;;;;;;32.42;23.88;;;;;;;;;;4884695;29;20037;-90
2022/12/27 09:35:49;;;;;;;21.90;15.73;;;;;;;;;;4884694;29;20120;-90
2022/12/27 09:38:15;;;;;;;24.95;16.75;;;;;;;;;;4868143;29;20455;-91
2022/12/27 09:40:51;;;;;;;21.55;14.20;;;;;;;;;;4868133;29;20439;-91
2022/12/27 09:43:18;;;;;;;28.60;20.73;;;;;;;;;;4884161;29;20123;-91
2022/12/27 09:45:46;;;;;;;22.25;14.50;;;;;;;;;;4884326;29;20047;-90
2022/12/27 09:48:12;;;;;;;17.23;10.57;;;;;;;;;;4884209;29;20040;-91
2022/12/27 09:50:59;;;;;;;22.95;12.88;;;;;;;;;;4884617;29;20029;-90
2022/12/27 09:53:44;;;;;;;26.10;15.93;;;;;;;;;;4884168;29;20032;-92
2022/12/27 09:56:11;;;;;;;22.65;12.63;;;;;;;;;;4884386;29;20040;-90
2022/12/27 09:58:49;;;;;;;18.88;10.73;;;;;;;;;;4867776;29;20044;-91
2022/12/27 10:01:23;;;;;;;16.30;10.57;;;;;;;;;;4884159;29;20028;-89
2022/12/27 10:03:49;;;;;;;17.92;11.02;;;;;;;;;;4867763;29;20523;-90
2022/12/27 10:06:15;;;;;;;23.25;14.07;;;;;;;;;;4867810;29;20431;-91
2022/12/27 10:08:56;;;;;;;16.33;10.95;;;;;;;;;;4884196;29;20043;-91
2022/12/27 10:11:37;;;;;;;17.83;11.40;;;;;;;;;;4883819;29;20025;-90
2022/12/27 10:14:22;;;;;;;20.15;11.00;;;;;;;;;;4883915;29;20476;-91
2022/12/27 10:16:53;;;;;;;21.80;12.57;;;;;;;;;;4884108;29;20040;-89
2022/12/27 10:19:19;;;;;;;22.65;13.60;;;;;;;;;;4883870;29;20373;-89
2022/12/27 10:22:08;;;;;;;20.63;12.57;;;;;;;;;;4883787;29;20025;-90
2022/12/27 10:24:54;;;;;;;30.70;14.75;;;;;;;;;;4823576;29;20150;-90
2022/12/27 10:27:22;;;;;;;19.65;12.15;;;;;;;;;;4829377;29;20072;-92
2022/12/27 10:29:51;;;;;;;23.88;12.75;;;;;;;;;;4829939;29;20049;-92
2022/12/27 10:32:17;;;;;;;17.55;10.10;;;;;;;;;;4830120;29;20117;-90
2022/12/27 10:34:43;;;;;;;13.43;8.30;;;;;;;;;;4845114;29;20042;-90
2022/12/27 10:37:14;;;;;;;7.97;4.05;;;;;;;;;;4845071;29;20030;-90
2022/12/27 10:39:40;;;;;;;8.45;4.40;;;;;;;;;;4830348;29;20041;-90
2022/12/27 10:42:24;;;;;;;8.32;3.28;;;;;;;;;;4829448;29;20044;-89
2022/12/27 10:44:50;;;;;;;3.90;2.10;;;;;;;;;;4830143;29;20030;-90
2022/12/27 10:47:16;;;;;;;4.57;2.10;;;;;;;;;;4830037;29;20033;-89
2022/12/27 10:49:45;;;;;;;6.78;2.53;;;;;;;;;;4829887;29;20053;-90
2022/12/27 10:52:13;;;;;;;4.32;1.77;;;;;;;;;;4845000;29;20038;-90
2022/12/27 10:54:53;;;;;;;3.20;1.52;;;;;;;;;;4845079;29;20120;-91
2022/12/27 10:57:28;;;;;;;3.30;2.08;;;;;;;;;;4844874;29;20121;-90
2022/12/27 11:00:10;;;;;;;4.05;1.70;;;;;;;;;;4844995;29;20038;-92
2022/12/27 11:02:48;;;;;;;8.38;4.07;;;;;;;;;;4900332;29;20088;-91
2022/12/27 11:05:20;;;;;;;6.47;2.95;;;;;;;;;;4921464;29;20039;-94
2022/12/27 11:07:46;;;;;;;11.23;4.22;;;;;;;;;;4924866;29;20059;-92
2022/12/27 11:10:16;;;;;;;8.32;3.60;;;;;;;;;;4924775;29;20032;-91
2022/12/27 11:12:59;;;;;;;5.30;2.60;;;;;;;;;;4924724;29;20079;-90
2022/12/27 11:15:26;;;;;;;7.57;3.38;;;;;;;;;;4924692;29;20119;-90
2022/12/27 11:17:57;;;;;;;8.60;4.50;;;;;;;;;;4907647;29;20044;-91
2022/12/27 11:20:23;;;;;;;10.70;4.30;;;;;;;;;;4908006;29;20028;-90
2022/12/27 11:22:51;;;;;;;6.40;3.05;;;;;;;;;;4924405;29;20071;-92
2022/12/27 11:25:18;;;;;;;8.05;3.70;;;;;;;;;;4907493;29;20131;-90
2022/12/27 11:27:45;;;;;;;4.50;2.90;;;;;;;;;;4907400;29;20123;-84
2022/12/27 11:30:26;;;;;;;13.95;6.13;;;;;;;;;;4907742;29;20417;-90
2022/12/27 11:32:53;;;;;;;9.90;4.53;;;;;;;;;;4907996;29;20035;-89
2022/12/27 11:35:20;;;;;;;8.50;3.95;;;;;;;;;;4924210;29;20059;-90
2022/12/27 11:37:47;;;;;;;14.95;6.70;;;;;;;;;;4924345;29;20032;-90
2022/12/27 11:40:21;;;;;;;20.92;8.20;;;;;;;;;;4924469;29;20032;-91
2022/12/27 11:42:50;;;;;;;13.18;6.22;;;;;;;;;;4907130;29;20536;-90
2022/12/27 11:45:21;;;;;;;52.63;24.90;;;;;;;;;;4924322;29;20307;-91
2022/12/27 11:47:47;;;;;;;7.57;5.18;;;;;;;;;;4907721;29;20042;-92
2022/12/27 11:50:28;;;;;;;17.80;8.63;;;;;;;;;;4907193;29;20308;-91
2022/12/27 11:53:01;;;;;;;13.93;8.73;;;;;;;;;;4923984;29;20033;-92
2022/12/27 11:55:31;;;;;;;13.43;7.15;;;;;;;;;;4907634;29;20036;-91
2022/12/27 11:58:03;;;;;;;12.35;7.60;;;;;;;;;;4923986;29;20028;-92
2022/12/27 12:00:37;;;;;;;12.50;6.22;;;;;;;;;;4923898;29;20387;-91
2022/12/27 12:03:09;;;;;;;22.08;8.43;;;;;;;;;;4923946;29;20028;-93
2022/12/27 12:05:37;;;;;;;;;;;;;;;;;;4924236;29;20033;-91
2022/12/27 12:08:06;;;;;;;11.20;6.60;;;;;;;;;;4923788;29;19911;-91
2022/12/27 12:10:45;;;;;;;17.63;8.35;;;;;;;;;;4907135;29;20028;-92
2022/12/27 12:13:11;;;;;;;19.17;9.13;;;;;;;;;;4923745;29;20036;-92
2022/12/27 12:15:56;;;;;;;24.42;10.43;;;;;;;;;;4906879;29;20048;-91
2022/12/27 12:18:25;;;;;;;29.70;12.32;;;;;;;;;;4905703;29;20415;-91
2022/12/27 12:20:54;;;;;;;21.00;9.00;;;;;;;;;;4906815;29;20032;-89
2022/12/27 12:23:35;;;;;;;15.85;7.35;;;;;;;;;;4923378;29;20080;-91
2022/12/27 12:26:18;;;;;;;10.80;5.40;;;;;;;;;;4906859;29;20297;-91
2022/12/27 12:29:03;;;;;;;13.13;6.63;;;;;;;;;;4923397;29;20251;-91
2022/12/27 12:31:48;;;;;;;18.27;9.02;;;;;;;;;;4923612;29;20027;-91
2022/12/27 12:34:20;;;;;;;16.75;5.50;;;;;;;;;;4923391;29;20032;-91
2022/12/27 12:36:46;;;;;;;;;;;;;;;;;;4923939;29;20364;-91
2022/12/27 12:39:12;;;;;;;11.38;5.35;;;;;;;;;;4923035;29;19931;-90
2022/12/27 12:41:57;;;;;;;4.22;2.38;;;;;;;;;;4906023;29;20044;-91
2022/12/27 12:44:29;;;;;;;6.88;2.65;;;;;;;;;;4923105;29;20033;-91
2022/12/27 12:46:55;;;;;;;;;;;;;;;;;;4906904;29;20038;-90
2022/12/27 12:49:29;;;;;;;19.50;10.55;;;;;;;;;;4922343;29;19907;-88
2022/12/27 12:52:07;;;;;;;33.53;16.40;;;;;;;;;;4923205;29;20115;-89
2022/12/27 12:54:36;;;;;;;30.30;14.18;;;;;;;;;;4922815;29;20352;-80
2022/12/27 12:57:14;;;;;;;21.38;10.40;;;;;;;;;;4922549;29;20032;-81
2022/12/27 12:59:48;;;;;;;14.10;6.32;;;;;;;;;;4905552;29;20040;-81
2022/12/27 13:30:01;;;;;;;10.73;4.22;;;;;;;;;;5135612;27;20388;-82
2022/12/27 13:32:27;;;;;;;11.93;4.18;;;;;;;;;;5135707;28;20407;-83
2022/12/27 13:34:56;;;;;;;9.02;3.63;;;;;;;;;;5117228;28;20028;-82
2022/12/27 13:37:31;;;;;;;11.45;4.25;;;;;;;;;;5135403;28;20020;-82
2022/12/27 13:40:10;;;;;;;15.05;5.57;;;;;;;;;;5135283;28;20020;-82
2022/12/27 13:42:48;;;;;;;19.75;7.25;;;;;;;;;;5117024;28;20016;-82
2022/12/27 13:45:30;;;;;;;22.23;8.80;;;;;;;;;;5117135;28;20027;-82
2022/12/27 13:47:56;;;;;;;19.27;7.30;;;;;;;;;;5116964;28;20035;-82
2022/12/27 13:50:31;;;;;;;14.90;6.72;;;;;;;;;;5135320;28;20031;-83
2022/12/27 13:52:57;;;;;;;14.70;6.50;;;;;;;;;;5133935;28;20019;-83
2022/12/27 13:55:42;;;;;;;31.95;16.08;;;;;;;;;;5135017;28;20062;-83
2022/12/27 13:58:26;;;;;;;11.88;8.13;;;;;;;;;;5135253;27;20100;-82
2022/12/27 14:00:52;;;;;;;10.00;5.55;;;;;;;;;;5116404;28;20035;-83
2022/12/27 14:03:22;;;;;;;6.93;5.20;;;;;;;;;;5134871;28;20027;-83
2022/12/27 14:06:06;;;;;;;4.68;2.92;;;;;;;;;;5116289;28;20531;-83
2022/12/27 14:08:40;;;;;;;8.43;3.30;;;;;;;;;;5134881;28;20030;-83
2022/12/27 14:11:26;;;;;;;14.65;5.18;;;;;;;;;;5134790;28;20313;-84
2022/12/27 14:13:53;;;;;;;5.03;2.88;;;;;;;;;;5134484;28;20118;-83
2022/12/27 14:16:40;;;;;;;5.35;2.45;;;;;;;;;;5134742;28;20084;-82
2022/12/27 14:19:18;;;;;;;7.35;4.20;;;;;;;;;;5134518;28;20019;-82
2022/12/27 14:22:04;;;;;;;13.73;5.55;;;;;;;;;;5130149;28;20119;-83
2022/12/27 14:24:45;;;;;;;22.77;8.40;;;;;;;;;;5134220;28;20024;-83
2022/12/27 14:27:24;;;;;;;20.45;7.32;;;;;;;;;;5134621;28;20020;-83
2022/12/27 14:29:56;;;;;;;19.35;7.22;;;;;;;;;;5122270;28;20040;-83
2022/12/27 14:32:22;;;;;;;;;;;;;;;;;;5119786;28;20032;-83
2022/12/27 14:34:48;;;;;;;19.25;6.03;;;;;;;;;;5120800;28;19903;-83
2022/12/27 14:37:22;;;;;;;19.85;6.70;;;;;;;;;;5120595;28;20091;-83
2022/12/27 14:40:06;;;;;;;25.88;7.80;;;;;;;;;;5120717;28;20020;-84
2022/12/27 14:42:51;;;;;;;29.60;11.43;;;;;;;;;;5120608;28;20042;-90
2022/12/27 14:45:17;;;;;;;53.90;24.77;;;;;;;;;;5119119;28;20035;-83
2022/12/27 14:47:58;;;;;;;50.60;28.60;;;;;;;;;;5120490;28;20032;-83
2022/12/27 14:50:43;;;;;;;19.67;9.95;;;;;;;;;;5120298;28;20106;-83
2022/12/27 14:53:35;;;;;;;24.52;11.18;;;;;;;;;;5120420;28;20035;-82
2022/12/27 14:56:19;;;;;;;21.92;13.52;;;;;;;;;;5120356;28;20028;-83
2022/12/27 14:58:50;;;;;;;25.48;12.60;;;;;;;;;;5120030;28;20036;-83
2022/12/27 15:01:16;;;;;;;23.52;11.00;;;;;;;;;;5115979;27;20384;-85
2022/12/27 15:03:46;;;;;;;13.68;7.95;;;;;;;;;;5120112;28;20028;-84
2022/12/27 15:06:24;;;;;;;21.80;10.27;;;;;;;;;;5119632;28;20047;-85
2022/12/27 15:09:10;;;;;;;30.52;15.43;;;;;;;;;;5104890;28;20024;-84
2022/12/27 15:11:36;;;;;;;35.45;16.10;;;;;;;;;;5119114;28;20069;-85
2022/12/27 15:14:28;;;;;;;41.15;17.10;;;;;;;;;;5120415;28;20027;-85
2022/12/27 15:16:54;;;;;;;29.65;12.57;;;;;;;;;;5118709;28;20446;-86
2022/12/27 15:19:24;;;;;;;24.48;13.35;;;;;;;;;;5118596;28;20070;-90
2022/12/27 15:22:01;;;;;;;27.40;15.73;;;;;;;;;;5112340;28;20051;-88
2022/12/27 15:24:30;;;;;;;19.45;10.95;;;;;;;;;;5116742;28;20022;-88
2022/12/27 15:27:02;;;;;;;17.80;10.07;;;;;;;;;;5115938;28;20453;-87
2022/12/27 15:29:40;;;;;;;21.13;11.27;;;;;;;;;;5099596;28;20060;-88
2022/12/27 15:32:19;;;;;;;22.55;14.40;;;;;;;;;;5098924;28;20424;-88
2022/12/27 15:34:48;;;;;;;18.33;10.73;;;;;;;;;;5098493;28;20108;-89
2022/12/27 15:37:33;;;;;;;14.82;8.98;;;;;;;;;;5099525;28;20024;-88
2022/12/27 15:40:00;;;;;;;10.50;6.45;;;;;;;;;;5109965;28;20085;-88
2022/12/27 15:42:33;;;;;;;13.02;8.20;;;;;;;;;;5118669;28;20012;-90
2022/12/27 15:45:05;;;;;;;16.55;8.93;;;;;;;;;;5119931;28;20040;-91
2022/12/27 15:48:01;;;;;;;20.02;10.77;;;;;;;;;;5118795;28;20028;-89
2022/12/27 15:50:47;;;;;;;18.15;8.05;;;;;;;;;;5119182;28;20030;-89
2022/12/27 15:53:29;;;;;;;13.13;6.05;;;;;;;;;;5118037;28;20031;-90
2022/12/27 15:55:55;;;;;;;16.33;6.70;;;;;;;;;;5118969;28;20034;-85
2022/12/27 15:58:22;;;;;;;12.50;7.07;;;;;;;;;;5098775;28;20139;-84
2022/12/27 16:01:07;;;;;;;14.77;5.95;;;;;;;;;;5098981;28;20410;-85
2022/12/27 16:03:38;;;;;;;8.32;4.47;;;;;;;;;;5097463;28;20043;-85
2022/12/27 16:06:08;;;;;;;10.40;4.57;;;;;;;;;;5097468;28;20387;-85
2022/12/27 16:08:39;;;;;;;8.18;5.07;;;;;;;;;;5097673;28;20026;-85
2022/12/27 16:11:07;;;;;;;8.93;5.90;;;;;;;;;;5098854;28;20031;-84
2022/12/27 16:13:36;;;;;;;17.88;8.10;;;;;;;;;;5098697;28;20085;-85
2022/12/27 16:16:02;;;;;;;23.40;10.85;;;;;;;;;;5100496;27;20077;-85
2022/12/27 16:18:29;;;;;;;26.58;11.80;;;;;;;;;;5139163;27;20034;-85
2022/12/27 16:21:03;;;;;;;21.25;11.20;;;;;;;;;;5139529;27;20079;-86
2022/12/27 16:23:32;;;;;;;19.98;10.23;;;;;;;;;;5138004;27;20122;-86
2022/12/27 16:26:04;;;;;;;16.20;8.07;;;;;;;;;;5139336;27;20050;-85
2022/12/27 16:28:31;;;;;;;10.13;6.22;;;;;;;;;;5137741;27;20047;-85
2022/12/27 16:30:58;;;;;;;16.33;7.80;;;;;;;;;;5139266;27;20405;-85
2022/12/27 16:33:29;;;;;;;22.75;9.00;;;;;;;;;;5139309;27;20030;-87
2022/12/27 16:36:05;;;;;;;21.73;9.93;;;;;;;;;;5138417;27;20015;-87
2022/12/27 16:38:32;;;;;;;19.02;10.38;;;;;;;;;;5139232;27;20023;-87
2022/12/27 16:41:19;;;;;;;18.73;10.02;;;;;;;;;;5138299;27;20428;-86
2022/12/27 16:43:51;;;;;;;20.33;9.48;;;;;;;;;;5056180;28;20056;-87